Time,TemperatureF,DewpointF,PressureIn,WindDirection,WindDirectionDegrees,WindSpeedMPH,WindSpeedGustMPH,Humidity,HourlyPrecipIn,Conditions,Clouds,dailyrainin,SoftwareType,DateUTC
2013-08-17 00:01:00,61.8,57.3,30.22,East,80,1.9,1.9,85,0.00,CLR,SCT,0.00,WeatherDisplay:10.37,2013-08-17 04:01:00,
2013-08-17 00:02:00,62.0,57.5,30.22,NE,54,2.3,2.3,85,0.00,CLR,SCT,0.00,WeatherDisplay:10.37,2013-08-17 04:02:00,
2013-08-17 00:07:00,61.9,57.4,30.22,East,95,1.1,1.1,85,0.00,CLR,SCT,0.00,WeatherDisplay:10.37,2013-08-17 04:07:00,
2013-08-17 00:12:00,61.8,57.3,30.22,NE,48,0.0,0.0,85,0.00,CLR,SCT,0.00,WeatherDisplay:10.37,2013-08-17 04:12:00,
2013-08-17 00:17:00,61.8,57.3,30.22,NE,48,0.0,0.0,85,0.00,CLR,SCT,0.00,WeatherDisplay:10.37,2013-08-17 04:17:00,
2013-08-17 00:22:00,61.8,57.3,30.22,NE,48,0.0,0.0,85,0.00,CLR,SCT,0.00,WeatherDisplay:10.37,2013-08-17 04:22:00,
2013-08-17 00:27:00,61.7,57.2,30.23,NE,48,0.0,0.0,85,0.00,CLR,SCT,0.00,WeatherDisplay:10.37,2013-08-17 04:27:00,
2013-08-17 00:32:00,61.7,57.5,30.23,NE,48,0.0,0.0,86,0.00,CLR,SCT,0.00,WeatherDisplay:10.37,2013-08-17 04:32:00,
2013-08-17 00:37:00,61.8,57.6,30.23,NE,48,0.0,0.0,86,0.00,CLR,SCT,0.00,WeatherDisplay:10.37,2013-08-17 04:37:00,
2013-08-17 00:42:00,61.5,57.3,30.23,East,79,0.2,0.2,86,0.00,CLR,SCT,0.00,WeatherDisplay:10.37,2013-08-17 04:42:00,
2013-08-17 00:47:00,61.5,57.3,30.23,East,79,0.0,0.0,86,0.00,CLR,SCT,0.00,WeatherDisplay:10.37,2013-08-17 04:47:00,
2013-08-17 00:52:00,61.4,57.2,30.23,East,79,0.0,0.0,86,0.00,CLR,SCT,0.00,WeatherDisplay:10.37,2013-08-17 04:52:00,
2013-08-17 00:57:00,61.3,57.1,30.23,East,79,0.0,0.0,86,0.00,CLR,SCT,0.00,WeatherDisplay:10.37,2013-08-17 04:57:00,
2013-08-17 01:02:00,61.2,57.3,30.23,East,79,0.0,0.0,87,0.00,CLR,SCT,0.00,WeatherDisplay:10.37,2013-08-17 05:02:00,
2013-08-17 01:07:00,61.3,57.4,30.22,East,79,0.0,0.0,87,0.00,CLR,SCT,0.00,WeatherDisplay:10.37,2013-08-17 05:07:00,
2013-08-17 01:12:00,61.2,57.3,30.22,East,79,0.0,0.0,87,0.00,CLR,SCT,0.00,WeatherDisplay:10.37,2013-08-17 05:12:00,
2013-08-17 01:17:00,61.4,57.5,30.22,East,79,0.0,0.0,87,0.00,CLR,SCT,0.00,WeatherDisplay:10.37,2013-08-17 05:17:00,
2013-08-17 01:22:00,61.5,57.3,30.22,East,79,0.0,0.0,86,0.00,CLR,SCT,0.00,WeatherDisplay:10.37,2013-08-17 05:22:00,
2013-08-17 01:27:00,61.5,57.3,30.22,East,79,0.0,0.0,86,0.00,CLR,SCT,0.00,WeatherDisplay:10.37,2013-08-17 05:27:00,
2013-08-17 01:32:00,61.5,57.3,30.22,East,79,0.0,0.0,86,0.00,CLR,SCT,0.00,WeatherDisplay:10.37,2013-08-17 05:32:00,
2013-08-17 01:37:00,61.3,57.4,30.22,East,79,0.0,0.0,87,0.00,CLR,SCT,0.00,WeatherDisplay:10.37,2013-08-17 05:37:00,
2013-08-17 01:42:00,61.0,57.1,30.22,East,79,0.0,0.0,87,0.00,CLR,SCT,0.00,WeatherDisplay:10.37,2013-08-17 05:42:00,
2013-08-17 01:47:00,60.8,56.9,30.22,East,79,0.0,0.0,87,0.00,CLR,SCT,0.00,WeatherDisplay:10.37,2013-08-17 05:47:00,
2013-08-17 01:52:00,60.7,56.8,30.22,East,79,0.0,0.0,87,0.00,CLR,SCT,0.00,WeatherDisplay:10.37,2013-08-17 05:52:00,
2013-08-17 01:57:00,60.7,56.8,30.22,East,79,0.0,0.0,87,0.00,CLR,SCT,0.00,WeatherDisplay:10.37,2013-08-17 05:57:00,
2013-08-17 02:02:00,60.7,57.2,30.22,East,79,0.0,0.0,88,0.00,CLR,SCT,0.00,WeatherDisplay:10.37,2013-08-17 06:02:00,
2013-08-17 02:07:00,60.6,57.1,30.22,East,79,0.0,0.0,88,0.00,CLR,SCT,0.00,WeatherDisplay:10.37,2013-08-17 06:07:00,
2013-08-17 02:12:00,60.6,57.1,30.22,East,79,0.0,0.0,88,0.00,CLR,SCT,0.00,WeatherDisplay:10.37,2013-08-17 06:12:00,
2013-08-17 02:17:00,60.5,57.0,30.22,East,79,0.0,0.0,88,0.00,CLR,SCT,0.00,WeatherDisplay:10.37,2013-08-17 06:17:00,
2013-08-17 02:22:00,60.5,57.0,30.21,East,79,0.0,0.0,88,0.00,CLR,SCT,0.00,WeatherDisplay:10.37,2013-08-17 06:22:00,
2013-08-17 02:27:00,60.4,56.9,30.21,East,79,0.0,0.0,88,0.00,CLR,SCT,0.00,WeatherDisplay:10.37,2013-08-17 06:27:00,
2013-08-17 02:32:00,60.3,56.8,30.21,East,79,0.0,0.0,88,0.00,CLR,SCT,0.00,WeatherDisplay:10.37,2013-08-17 06:32:00,
2013-08-17 02:37:00,60.1,56.6,30.20,East,79,0.0,0.0,88,0.00,CLR,SCT,0.00,WeatherDisplay:10.37,2013-08-17 06:37:00,
2013-08-17 02:42:00,60.0,56.5,30.20,East,79,0.0,0.0,88,0.00,CLR,SCT,0.00,WeatherDisplay:10.37,2013-08-17 06:42:00,
2013-08-17 02:47:00,59.9,56.4,30.21,East,79,0.0,0.0,88,0.00,CLR,SCT,0.00,WeatherDisplay:10.37,2013-08-17 06:47:00,
2013-08-17 02:52:00,59.7,56.2,30.21,East,79,0.0,0.0,88,0.00,CLR,SCT,0.00,WeatherDisplay:10.37,2013-08-17 06:52:00,
2013-08-17 02:57:00,59.6,56.4,30.22,East,79,0.0,0.0,89,0.00,CLR,SCT,0.00,WeatherDisplay:10.37,2013-08-17 06:57:00,
2013-08-17 03:02:00,59.6,56.4,30.22,East,79,0.0,0.0,89,0.00,CLR,SCT,0.00,WeatherDisplay:10.37,2013-08-17 07:02:00,
2013-08-17 03:07:00,59.5,56.3,30.22,East,79,0.0,0.0,89,0.00,CLR,SCT,0.00,WeatherDisplay:10.37,2013-08-17 07:07:00,
2013-08-17 03:12:00,59.3,56.1,30.22,East,79,0.0,0.0,89,0.00,CLR,SCT,0.00,WeatherDisplay:10.37,2013-08-17 07:12:00,
2013-08-17 03:17:00,59.2,56.0,30.22,East,79,0.0,0.0,89,0.00,CLR,SCT,0.00,WeatherDisplay:10.37,2013-08-17 07:17:00,
2013-08-17 03:22:00,59.2,56.0,30.22,East,79,0.0,0.0,89,0.00,CLR,SCT,0.00,WeatherDisplay:10.37,2013-08-17 07:22:00,
2013-08-17 03:27:00,59.2,56.3,30.22,East,79,0.0,0.0,90,0.00,CLR,SCT,0.00,WeatherDisplay:10.37,2013-08-17 07:27:00,
2013-08-17 03:32:00,59.3,56.4,30.22,East,79,0.0,0.0,90,0.00,CLR,SCT,0.00,WeatherDisplay:10.37,2013-08-17 07:32:00,
2013-08-17 03:37:00,59.2,56.3,30.22,East,79,0.0,0.0,90,0.00,CLR,SCT,0.00,WeatherDisplay:10.37,2013-08-17 07:37:00,
2013-08-17 03:42:00,59.2,56.3,30.22,East,79,0.0,0.0,90,0.00,CLR,SCT,0.00,WeatherDisplay:10.37,2013-08-17 07:42:00,
2013-08-17 03:47:00,59.3,56.4,30.22,East,79,0.0,0.0,90,0.00,CLR,SCT,0.00,WeatherDisplay:10.37,2013-08-17 07:47:00,
2013-08-17 03:52:00,59.3,56.4,30.22,East,79,0.0,0.0,90,0.00,CLR,SCT,0.00,WeatherDisplay:10.37,2013-08-17 07:52:00,
2013-08-17 03:57:00,59.5,56.6,30.21,East,79,0.0,0.0,90,0.00,CLR,SCT,0.00,WeatherDisplay:10.37,2013-08-17 07:57:00,
2013-08-17 04:03:00,59.4,56.5,30.21,East,79,0.0,0.0,90,0.00,CLR,SCT,0.00,WeatherDisplay:10.37,2013-08-17 08:03:00,
2013-08-17 04:08:00,59.4,56.5,30.21,East,79,0.0,0.0,90,0.00,CLR,SCT,0.00,WeatherDisplay:10.37,2013-08-17 08:08:00,
2013-08-17 04:13:00,59.5,56.6,30.21,East,79,0.0,0.0,90,0.00,CLR,SCT,0.00,WeatherDisplay:10.37,2013-08-17 08:13:00,
2013-08-17 04:18:00,59.4,56.5,30.21,East,79,0.0,0.0,90,0.00,CLR,SCT,0.00,WeatherDisplay:10.37,2013-08-17 08:18:00,
2013-08-17 04:23:00,59.3,56.4,30.21,East,79,0.0,0.0,90,0.00,CLR,SCT,0.00,WeatherDisplay:10.37,2013-08-17 08:23:00,
2013-08-17 04:28:00,59.4,56.5,30.22,East,79,0.0,0.0,90,0.00,CLR,SCT,0.00,WeatherDisplay:10.37,2013-08-17 08:28:00,
2013-08-17 04:33:00,59.4,56.5,30.21,East,79,0.0,0.0,90,0.00,CLR,SCT,0.00,WeatherDisplay:10.37,2013-08-17 08:33:00,
2013-08-17 04:38:00,59.3,56.4,30.21,East,79,0.0,0.0,90,0.00,CLR,SCT,0.00,WeatherDisplay:10.37,2013-08-17 08:38:00,
2013-08-17 04:43:00,59.1,56.2,30.21,East,79,0.0,0.0,90,0.00,CLR,SCT,0.00,WeatherDisplay:10.37,2013-08-17 08:43:00,
2013-08-17 04:48:00,59.0,56.1,30.21,East,79,0.0,0.0,90,0.00,CLR,SCT,0.00,WeatherDisplay:10.37,2013-08-17 08:48:00,
2013-08-17 04:53:00,58.9,56.0,30.21,East,79,0.0,0.0,90,0.00,CLR,SCT,0.00,WeatherDisplay:10.37,2013-08-17 08:53:00,
2013-08-17 04:58:00,58.7,55.8,30.21,East,79,0.0,0.0,90,0.00,CLR,SCT,0.00,WeatherDisplay:10.37,2013-08-17 08:58:00,
2013-08-17 05:03:00,58.6,55.7,30.21,East,79,0.0,0.0,90,0.00,CLR,SCT,0.00,WeatherDisplay:10.37,2013-08-17 09:03:00,
2013-08-17 05:08:00,58.5,55.6,30.21,East,79,0.0,0.0,90,0.00,CLR,SCT,0.00,WeatherDisplay:10.37,2013-08-17 09:08:00,
2013-08-17 05:13:00,58.4,55.5,30.22,East,79,0.0,0.0,90,0.00,CLR,SCT,0.00,WeatherDisplay:10.37,2013-08-17 09:13:00,
2013-08-17 05:18:00,58.5,55.6,30.22,East,79,0.0,0.0,90,0.00,CLR,SCT,0.00,WeatherDisplay:10.37,2013-08-17 09:18:00,
2013-08-17 05:23:00,58.5,55.6,30.22,East,79,0.0,0.0,90,0.00,CLR,SCT,0.00,WeatherDisplay:10.37,2013-08-17 09:23:00,
2013-08-17 05:28:00,58.4,55.5,30.22,East,79,0.0,0.0,90,0.00,CLR,SCT,0.00,WeatherDisplay:10.37,2013-08-17 09:28:00,
2013-08-17 05:33:00,58.6,55.7,30.22,East,79,0.0,0.0,90,0.00,CLR,SCT,0.00,WeatherDisplay:10.37,2013-08-17 09:33:00,
2013-08-17 05:38:00,58.6,55.7,30.22,East,79,0.0,0.0,90,0.00,CLR,SCT,0.00,WeatherDisplay:10.37,2013-08-17 09:38:00,
2013-08-17 05:43:00,58.6,55.7,30.22,East,79,0.0,0.0,90,0.00,CLR,SCT,0.00,WeatherDisplay:10.37,2013-08-17 09:43:00,
2013-08-17 05:48:00,58.6,55.7,30.22,East,79,0.0,0.0,90,0.00,CLR,SCT,0.00,WeatherDisplay:10.37,2013-08-17 09:48:00,
2013-08-17 05:53:00,58.6,55.7,30.22,East,79,0.0,0.0,90,0.00,CLR,SCT,0.00,WeatherDisplay:10.37,2013-08-17 09:53:00,
2013-08-17 05:58:00,58.6,55.7,30.22,East,79,0.0,0.0,90,0.00,CLR,SCT,0.00,WeatherDisplay:10.37,2013-08-17 09:58:00,
2013-08-17 06:03:00,58.7,55.8,30.22,East,79,0.0,0.0,90,0.00,CLR,SCT,0.00,WeatherDisplay:10.37,2013-08-17 10:03:00,
2013-08-17 06:08:00,58.9,56.0,30.22,East,79,0.0,0.0,90,0.00,CLR,SCT,0.00,WeatherDisplay:10.37,2013-08-17 10:08:00,
2013-08-17 06:13:00,58.8,55.9,30.22,East,79,0.0,0.0,90,0.00,CLR,SCT,0.00,WeatherDisplay:10.37,2013-08-17 10:13:00,
2013-08-17 06:18:00,58.7,55.8,30.23,East,79,0.0,0.0,90,0.00,CLR,SCT,0.00,WeatherDisplay:10.37,2013-08-17 10:18:00,
2013-08-17 06:23:00,58.6,55.7,30.23,East,79,0.0,0.0,90,0.00,CLR,SCT,0.00,WeatherDisplay:10.37,2013-08-17 10:23:00,
2013-08-17 06:28:00,58.3,55.4,30.23,East,79,0.0,0.0,90,0.00,CLR,SCT,0.00,WeatherDisplay:10.37,2013-08-17 10:28:00,
2013-08-17 06:33:00,58.3,55.7,30.24,East,79,0.0,0.0,91,0.00,CLR,SCT,0.00,WeatherDisplay:10.37,2013-08-17 10:33:00,
2013-08-17 06:38:00,58.3,55.7,30.24,East,79,0.0,0.0,91,0.00,CLR,SCT,0.00,WeatherDisplay:10.37,2013-08-17 10:38:00,
2013-08-17 06:43:00,58.1,55.5,30.24,East,79,0.0,0.0,91,0.00,CLR,SCT,0.00,WeatherDisplay:10.37,2013-08-17 10:43:00,
2013-08-17 06:48:00,58.2,55.6,30.24,East,79,0.0,0.0,91,0.00,CLR,SCT,0.00,WeatherDisplay:10.37,2013-08-17 10:48:00,
2013-08-17 06:53:00,58.3,55.7,30.24,East,79,0.0,0.0,91,0.00,CLR,SCT,0.00,WeatherDisplay:10.37,2013-08-17 10:53:00,
2013-08-17 06:58:00,58.3,55.7,30.24,East,79,0.0,0.0,91,0.00,CLR,SCT,0.00,WeatherDisplay:10.37,2013-08-17 10:58:00,
2013-08-17 07:03:00,58.3,55.7,30.24,East,79,0.0,0.0,91,0.00,CLR,SCT,0.00,WeatherDisplay:10.37,2013-08-17 11:03:00,
2013-08-17 07:08:00,58.4,55.8,30.24,East,79,0.0,0.0,91,0.00,CLR,SCT,0.00,WeatherDisplay:10.37,2013-08-17 11:08:00,
2013-08-17 07:13:00,58.4,55.8,30.24,East,79,0.0,0.0,91,0.00,CLR,SCT,0.00,WeatherDisplay:10.37,2013-08-17 11:13:00,
2013-08-17 07:18:00,58.3,55.7,30.24,East,79,0.0,0.0,91,0.00,CLR,SCT,0.00,WeatherDisplay:10.37,2013-08-17 11:18:00,
2013-08-17 07:23:00,58.3,55.7,30.25,East,79,0.0,0.0,91,0.00,CLR,SCT,0.00,WeatherDisplay:10.37,2013-08-17 11:23:00,
2013-08-17 07:28:00,58.4,55.8,30.25,East,79,0.0,0.0,91,0.00,CLR,SCT,0.00,WeatherDisplay:10.37,2013-08-17 11:28:00,
2013-08-17 07:33:00,58.3,55.7,30.24,East,79,0.0,0.0,91,0.00,CLR,SCT,0.00,WeatherDisplay:10.37,2013-08-17 11:33:00,
2013-08-17 07:38:00,58.5,55.9,30.25,East,79,0.0,0.0,91,0.00,CLR,SCT,0.00,WeatherDisplay:10.37,2013-08-17 11:38:00,
2013-08-17 07:43:00,58.5,55.9,30.25,East,79,0.0,0.0,91,0.00,CLR,SCT,0.00,WeatherDisplay:10.37,2013-08-17 11:43:00,
2013-08-17 07:48:00,58.5,55.9,30.25,East,79,0.0,0.0,91,0.00,CLR,SCT,0.00,WeatherDisplay:10.37,2013-08-17 11:48:00,
2013-08-17 07:53:00,58.6,56.0,30.25,East,79,0.0,0.0,91,0.00,CLR,SCT,0.00,WeatherDisplay:10.37,2013-08-17 11:53:00,
2013-08-17 07:58:00,58.5,55.9,30.25,East,79,0.0,0.0,91,0.00,CLR,SCT,0.00,WeatherDisplay:10.37,2013-08-17 11:58:00,
2013-08-17 08:03:00,58.7,56.1,30.25,East,79,0.0,0.0,91,0.00,CLR,SCT,0.00,WeatherDisplay:10.37,2013-08-17 12:03:00,
2013-08-17 08:06:00,58.8,56.2,30.25,East,79,0.0,0.0,91,0.00,CLR,SCT,0.00,WeatherDisplay:10.37,2013-08-17 12:06:00,
2013-08-17 08:11:00,58.8,56.2,30.25,East,79,0.0,0.0,91,0.00,CLR,SCT,0.00,WeatherDisplay:10.37,2013-08-17 12:11:00,
2013-08-17 08:16:00,59.0,56.4,30.25,East,79,0.0,0.0,91,0.00,CLR,SCT,0.00,WeatherDisplay:10.37,2013-08-17 12:16:00,
2013-08-17 08:21:00,59.2,56.6,30.25,East,79,0.0,0.0,91,0.00,CLR,SCT,0.00,WeatherDisplay:10.37,2013-08-17 12:21:00,
2013-08-17 08:26:00,59.3,56.4,30.25,East,79,0.0,0.0,90,0.00,CLR,SCT,0.00,WeatherDisplay:10.37,2013-08-17 12:26:00,
2013-08-17 08:31:00,59.5,56.6,30.25,East,79,0.0,0.0,90,0.00,CLR,SCT,0.00,WeatherDisplay:10.37,2013-08-17 12:31:00,
2013-08-17 08:36:00,59.6,56.7,30.25,East,79,0.0,0.0,90,0.00,CLR,SCT,0.00,WeatherDisplay:10.37,2013-08-17 12:36:00,
2013-08-17 08:41:00,59.7,56.8,30.25,East,79,0.0,0.0,90,0.00,CLR,SCT,0.00,WeatherDisplay:10.37,2013-08-17 12:41:00,
2013-08-17 08:46:00,59.8,57.2,30.25,East,79,0.0,0.0,91,0.00,CLR,SCT,0.00,WeatherDisplay:10.37,2013-08-17 12:46:00,
2013-08-17 08:51:00,59.7,56.8,30.25,East,79,0.0,0.0,90,0.00,CLR,SCT,0.00,WeatherDisplay:10.37,2013-08-17 12:51:00,
2013-08-17 08:56:00,59.8,56.9,30.25,East,79,0.0,0.0,90,0.00,CLR,SCT,0.00,WeatherDisplay:10.37,2013-08-17 12:56:00,
2013-08-17 09:01:00,59.9,57.3,30.26,East,79,0.0,0.0,91,0.00,CLR,SCT,0.00,WeatherDisplay:10.37,2013-08-17 13:01:00,
2013-08-17 09:06:00,60.1,57.5,30.26,East,79,0.0,0.0,91,0.00,CLR,SCT,0.00,WeatherDisplay:10.37,2013-08-17 13:06:00,
2013-08-17 09:11:00,60.4,57.5,30.26,East,79,0.0,0.0,90,0.00,CLR,SCT,0.00,WeatherDisplay:10.37,2013-08-17 13:11:00,
2013-08-17 09:16:00,60.4,57.5,30.25,ENE,58,0.0,0.0,90,0.00,CLR,SCT,0.00,WeatherDisplay:10.37,2013-08-17 13:16:00,
2013-08-17 09:21:00,60.8,57.9,30.25,ENE,58,0.0,0.0,90,0.00,CLR,SCT,0.00,WeatherDisplay:10.37,2013-08-17 13:21:00,
2013-08-17 09:26:00,61.0,57.8,30.26,ENE,58,0.0,0.0,89,0.00,CLR,SCT,0.00,WeatherDisplay:10.37,2013-08-17 13:26:00,
2013-08-17 09:31:00,61.2,58.0,30.26,ENE,66,2.3,2.3,89,0.00,CLR,SCT,0.00,WeatherDisplay:10.37,2013-08-17 13:31:00,
2013-08-17 09:36:00,61.3,57.8,30.26,NE,52,2.3,2.3,88,0.00,CLR,SCT,0.00,WeatherDisplay:10.37,2013-08-17 13:36:00,
2013-08-17 09:41:00,61.5,58.0,30.26,NE,37,1.1,1.1,88,0.00,CLR,SCT,0.00,WeatherDisplay:10.37,2013-08-17 13:41:00,
2013-08-17 09:46:00,61.7,58.1,30.26,ENE,68,1.1,0.0,88,0.00,CLR,SCT,0.00,WeatherDisplay:10.37,2013-08-17 13:46:00,
2013-08-17 09:51:00,61.9,58.3,30.26,NE,42,0.0,0.0,88,0.00,CLR,SCT,0.00,WeatherDisplay:10.37,2013-08-17 13:51:00,
2013-08-17 09:56:00,62.2,58.6,30.26,NE,42,0.0,0.0,88,0.00,CLR,SCT,0.00,WeatherDisplay:10.37,2013-08-17 13:56:00,
2013-08-17 10:01:00,62.5,58.9,30.25,East,89,1.2,1.2,88,0.00,BKN,SCT,0.00,WeatherDisplay:10.37,2013-08-17 14:01:00,
2013-08-17 10:06:00,62.7,58.8,30.25,East,90,0.0,0.0,87,0.00,BKN,SCT,0.00,WeatherDisplay:10.37,2013-08-17 14:06:00,
2013-08-17 10:11:00,62.8,58.6,30.25,South,171,2.3,2.3,86,0.00,BKN,SCT,0.00,WeatherDisplay:10.37,2013-08-17 14:11:00,
2013-08-17 10:16:00,62.9,58.7,30.26,SE,127,0.0,0.0,86,0.00,BKN,SCT,0.00,WeatherDisplay:10.37,2013-08-17 14:16:00,
2013-08-17 10:21:00,63.1,58.9,30.26,NE,49,3.5,3.5,86,0.00,BKN,SCT,0.00,WeatherDisplay:10.37,2013-08-17 14:21:00,
2013-08-17 10:26:00,63.5,59.3,30.26,ENE,68,0.0,0.0,86,0.00,BKN,SCT,0.00,WeatherDisplay:10.37,2013-08-17 14:26:00,
2013-08-17 10:31:00,63.7,59.1,30.26,East,80,1.1,1.1,85,0.00,BKN,SCT,0.00,WeatherDisplay:10.37,2013-08-17 14:31:00,
2013-08-17 10:36:00,63.9,59.0,30.26,SE,133,1.1,1.1,84,0.00,BKN,SCT,0.00,WeatherDisplay:10.37,2013-08-17 14:36:00,
2013-08-17 10:41:00,64.2,59.3,30.27,ENE,59,3.7,3.7,84,0.00,BKN,SCT,0.00,WeatherDisplay:10.37,2013-08-17 14:41:00,
2013-08-17 10:46:00,64.6,59.4,30.26,ENE,66,2.3,2.3,83,0.00,BKN,SCT,0.00,WeatherDisplay:10.37,2013-08-17 14:46:00,
2013-08-17 10:51:00,65.0,59.7,30.26,ENE,62,3.6,3.6,83,0.00,BKN,SCT,0.00,WeatherDisplay:10.37,2013-08-17 14:51:00,
2013-08-17 10:56:00,65.5,59.9,30.26,NE,52,1.1,1.1,82,0.00,BKN,SCT,0.00,WeatherDisplay:10.37,2013-08-17 14:56:00,
2013-08-17 11:01:00,65.8,60.2,30.26,WSW,243,0.0,0.0,82,0.00,BKN,SCT,0.00,WeatherDisplay:10.37,2013-08-17 15:01:00,
2013-08-17 11:06:00,66.2,60.2,30.26,ENE,66,1.1,1.1,81,0.00,BKN,SCT,0.00,WeatherDisplay:10.37,2013-08-17 15:06:00,
2013-08-17 11:11:00,66.1,59.8,30.26,East,80,3.5,3.5,80,0.00,BKN,SCT,0.00,WeatherDisplay:10.37,2013-08-17 15:11:00,
2013-08-17 11:16:00,66.3,60.0,30.26,ESE,107,1.1,1.1,80,0.00,BKN,SCT,0.00,WeatherDisplay:10.37,2013-08-17 15:16:00,
2013-08-17 11:21:00,66.3,60.0,30.26,SSE,160,0.0,0.1,80,0.00,BKN,SCT,0.00,WeatherDisplay:10.37,2013-08-17 15:21:00,
2013-08-17 11:26:00,66.3,59.6,30.26,SSE,160,0.0,0.0,79,0.00,BKN,SCT,0.00,WeatherDisplay:10.37,2013-08-17 15:26:00,
2013-08-17 11:31:00,66.3,59.3,30.26,SSW,205,5.8,5.8,78,0.00,BKN,SCT,0.00,WeatherDisplay:10.37,2013-08-17 15:31:00,
2013-08-17 11:36:00,66.3,59.3,30.26,SE,126,2.3,2.3,78,0.00,BKN,SCT,0.00,WeatherDisplay:10.37,2013-08-17 15:36:00,
2013-08-17 11:41:00,66.2,59.2,30.26,SSE,167,4.6,4.6,78,0.00,BKN,SCT,0.00,WeatherDisplay:10.37,2013-08-17 15:41:00,
2013-08-17 11:46:00,66.2,59.2,30.25,ESE,106,2.3,2.3,78,0.00,BKN,SCT,0.00,WeatherDisplay:10.37,2013-08-17 15:46:00,
2013-08-17 11:51:00,66.3,59.6,30.26,SSW,196,3.5,3.5,79,0.00,BKN,SCT,0.00,WeatherDisplay:10.37,2013-08-17 15:51:00,
2013-08-17 11:56:00,66.7,60.4,30.26,SSE,164,0.3,0.0,80,0.00,BKN,SCT,0.00,WeatherDisplay:10.37,2013-08-17 15:56:00,
2013-08-17 12:01:00,66.6,59.9,30.26,SSE,168,3.5,3.5,79,0.00,BKN,SCT,0.00,WeatherDisplay:10.37,2013-08-17 16:01:00,
2013-08-17 12:06:00,66.6,59.6,30.25,SSE,147,2.3,2.3,78,0.00,BKN,SCT,0.00,WeatherDisplay:10.37,2013-08-17 16:06:00,
2013-08-17 12:11:00,66.5,59.5,30.25,ESE,120,2.3,2.3,78,0.00,BKN,SCT,0.00,WeatherDisplay:10.37,2013-08-17 16:11:00,
2013-08-17 12:16:00,66.8,59.8,30.25,SSE,162,4.6,4.6,78,0.00,BKN,SCT,0.00,WeatherDisplay:10.37,2013-08-17 16:16:00,
2013-08-17 12:21:00,67.0,60.0,30.25,SE,133,2.3,2.3,78,0.00,BKN,SCT,0.00,WeatherDisplay:10.37,2013-08-17 16:21:00,
2013-08-17 12:26:00,67.2,60.1,30.25,WSW,237,3.5,3.5,78,0.00,BKN,SCT,0.00,WeatherDisplay:10.37,2013-08-17 16:26:00,
2013-08-17 12:31:00,67.1,60.0,30.25,South,184,3.5,3.5,78,0.00,BKN,SCT,0.00,WeatherDisplay:10.37,2013-08-17 16:31:00,
2013-08-17 12:36:00,67.1,60.0,30.25,South,169,2.3,2.3,78,0.00,BKN,SCT,0.00,WeatherDisplay:10.37,2013-08-17 16:36:00,
2013-08-17 12:41:00,67.1,60.0,30.25,SSE,164,1.1,1.1,78,0.00,BKN,SCT,0.00,WeatherDisplay:10.37,2013-08-17 16:41:00,
2013-08-17 12:46:00,66.9,59.9,30.25,SSE,165,3.5,3.5,78,0.00,BKN,SCT,0.00,WeatherDisplay:10.37,2013-08-17 16:46:00,
2013-08-17 12:51:00,66.9,59.5,30.25,South,188,5.8,5.8,77,0.00,BKN,SCT,0.00,WeatherDisplay:10.37,2013-08-17 16:51:00,
2013-08-17 12:56:00,67.0,60.0,30.25,East,79,5.8,5.8,78,0.00,BKN,SCT,0.00,WeatherDisplay:10.37,2013-08-17 16:56:00,
2013-08-17 13:01:00,67.0,59.6,30.26,SSE,157,5.8,5.8,77,0.00,BKN,SCT,0.00,WeatherDisplay:10.37,2013-08-17 17:01:00,
2013-08-17 13:06:00,66.8,58.7,30.26,South,188,10.4,10.4,75,0.00,BKN,SCT,0.00,WeatherDisplay:10.37,2013-08-17 17:06:00,
2013-08-17 13:11:00,66.6,58.8,30.26,South,171,8.1,8.1,76,0.00,BKN,SCT,0.00,WeatherDisplay:10.37,2013-08-17 17:11:00,
2013-08-17 13:16:00,66.3,58.5,30.26,SSW,208,7.9,7.9,76,0.00,BKN,SCT,0.00,WeatherDisplay:10.37,2013-08-17 17:16:00,
2013-08-17 13:21:00,66.1,58.0,30.26,South,171,9.2,9.2,75,0.00,BKN,SCT,0.00,WeatherDisplay:10.37,2013-08-17 17:21:00,
2013-08-17 13:26:00,66.1,57.6,30.26,South,184,8.1,8.1,74,0.00,BKN,SCT,0.00,WeatherDisplay:10.37,2013-08-17 17:26:00,
2013-08-17 13:31:00,66.2,57.3,30.26,South,182,10.6,10.6,73,0.00,BKN,SCT,0.00,WeatherDisplay:10.37,2013-08-17 17:31:00,
2013-08-17 13:36:00,66.2,57.3,30.25,SW,219,13.8,13.8,73,0.00,BKN,SCT,0.00,WeatherDisplay:10.37,2013-08-17 17:36:00,
2013-08-17 13:41:00,66.4,56.7,30.25,ENE,64,5.8,5.8,71,0.00,BKN,SCT,0.00,WeatherDisplay:10.37,2013-08-17 17:41:00,
2013-08-17 13:46:00,66.7,56.6,30.25,SE,133,10.4,10.4,70,0.00,BKN,SCT,0.00,WeatherDisplay:10.37,2013-08-17 17:46:00,
2013-08-17 13:51:00,66.9,56.4,30.25,South,181,5.4,5.4,69,0.00,BKN,SCT,0.00,WeatherDisplay:10.37,2013-08-17 17:51:00,
2013-08-17 13:56:00,67.1,56.6,30.25,SSW,200,6.3,6.3,69,0.00,BKN,SCT,0.00,WeatherDisplay:10.37,2013-08-17 17:56:00,
2013-08-17 14:01:00,67.0,56.5,30.25,SE,130,17.3,17.3,69,0.00,OVC,SCT,0.00,WeatherDisplay:10.37,2013-08-17 18:01:00,
2013-08-17 14:06:00,66.9,56.4,30.25,South,182,9.2,9.2,69,0.00,OVC,SCT,0.00,WeatherDisplay:10.37,2013-08-17 18:06:00,
2013-08-17 14:11:00,66.9,56.4,30.25,South,181,10.4,10.4,69,0.00,OVC,SCT,0.00,WeatherDisplay:10.37,2013-08-17 18:11:00,
2013-08-17 14:16:00,66.7,56.2,30.25,South,184,8.1,8.1,69,0.00,OVC,SCT,0.00,WeatherDisplay:10.37,2013-08-17 18:16:00,
2013-08-17 14:21:00,66.5,56.1,30.24,South,171,11.5,11.5,69,0.00,OVC,SCT,0.00,WeatherDisplay:10.37,2013-08-17 18:21:00,
2013-08-17 14:26:00,66.5,55.6,30.24,South,185,6.9,6.9,68,0.00,OVC,SCT,0.00,WeatherDisplay:10.37,2013-08-17 18:26:00,
2013-08-17 14:31:00,66.6,56.1,30.24,SSW,199,9.2,9.2,69,0.00,OVC,SCT,0.00,WeatherDisplay:10.37,2013-08-17 18:31:00,
2013-08-17 14:36:00,67.2,56.3,30.24,South,172,10.4,10.4,68,0.00,OVC,SCT,0.00,WeatherDisplay:10.37,2013-08-17 18:36:00,
2013-08-17 14:41:00,67.6,57.1,30.24,ESE,104,3.7,3.7,69,0.00,OVC,SCT,0.00,WeatherDisplay:10.37,2013-08-17 18:41:00,
2013-08-17 14:46:00,67.8,56.9,30.23,East,100,4.6,4.6,68,0.00,OVC,SCT,0.00,WeatherDisplay:10.37,2013-08-17 18:46:00,
2013-08-17 14:51:00,67.9,57.4,30.23,East,82,6.9,6.9,69,0.00,OVC,SCT,0.00,WeatherDisplay:10.37,2013-08-17 18:51:00,
2013-08-17 14:56:00,68.0,57.5,30.23,SE,138,5.8,5.8,69,0.00,OVC,SCT,0.00,WeatherDisplay:10.37,2013-08-17 18:56:00,
2013-08-17 15:01:00,67.8,56.9,30.22,SSW,213,8.7,8.7,68,0.00,OVC,SCT,0.00,WeatherDisplay:10.37,2013-08-17 19:01:00,
2013-08-17 15:06:00,67.1,57.0,30.22,NNE,28,5.8,5.8,70,0.00,OVC,SCT,0.00,WeatherDisplay:10.37,2013-08-17 19:06:00,
2013-08-17 15:11:00,66.8,57.1,30.22,SE,126,5.8,5.8,71,0.00,OVC,SCT,0.00,WeatherDisplay:10.37,2013-08-17 19:11:00,
2013-08-17 15:16:00,66.5,56.8,30.22,SSE,150,3.5,3.5,71,0.00,OVC,SCT,0.00,WeatherDisplay:10.37,2013-08-17 19:16:00,
2013-08-17 15:21:00,66.8,57.1,30.22,South,181,3.5,3.5,71,0.00,OVC,SCT,0.00,WeatherDisplay:10.37,2013-08-17 19:21:00,
2013-08-17 15:26:00,66.8,57.5,30.22,SE,144,2.3,0.0,72,0.00,OVC,SCT,0.00,WeatherDisplay:10.37,2013-08-17 19:26:00,
2013-08-17 15:31:00,66.6,57.3,30.22,SSE,162,8.1,8.1,72,0.00,OVC,SCT,0.00,WeatherDisplay:10.37,2013-08-17 19:31:00,
2013-08-17 15:36:00,66.3,57.8,30.22,SE,133,2.3,2.3,74,0.00,OVC,SCT,0.00,WeatherDisplay:10.37,2013-08-17 19:36:00,
2013-08-17 15:41:00,66.1,57.6,30.22,South,176,5.8,5.8,74,0.00,OVC,SCT,0.00,WeatherDisplay:10.37,2013-08-17 19:41:00,
2013-08-17 15:46:00,66.0,57.5,30.22,South,184,4.6,4.6,74,0.00,OVC,SCT,0.00,WeatherDisplay:10.37,2013-08-17 19:46:00,
2013-08-17 15:51:00,66.0,57.5,30.22,East,93,3.5,3.5,74,0.00,OVC,SCT,0.00,WeatherDisplay:10.37,2013-08-17 19:51:00,
2013-08-17 15:56:00,65.8,57.3,30.22,SW,215,4.6,4.6,74,0.00,OVC,SCT,0.00,WeatherDisplay:10.37,2013-08-17 19:56:00,
2013-08-17 16:01:00,65.7,57.6,30.22,SSE,160,9.2,9.2,75,0.00,OVC,SCT,0.00,WeatherDisplay:10.37,2013-08-17 20:01:00,
2013-08-17 16:06:00,65.2,57.8,30.22,SSW,205,8.1,8.1,77,0.00,OVC,SCT,0.00,WeatherDisplay:10.37,2013-08-17 20:06:00,
2013-08-17 16:11:00,64.8,58.2,30.22,South,191,2.9,2.9,79,0.00,OVC,SCT,0.00,WeatherDisplay:10.37,2013-08-17 20:11:00,
2013-08-17 16:16:00,64.7,58.4,30.22,South,185,8.1,8.1,80,0.00,OVC,SCT,0.00,WeatherDisplay:10.37,2013-08-17 20:16:00,
2013-08-17 16:21:00,63.8,58.2,30.22,South,191,5.8,5.8,82,0.00,OVC,SCT,0.00,WeatherDisplay:10.37,2013-08-17 20:21:00,
2013-08-17 16:26:00,63.6,58.4,30.23,South,169,4.6,4.6,83,0.00,OVC,SCT,0.00,WeatherDisplay:10.37,2013-08-17 20:26:00,
2013-08-17 16:31:00,63.0,58.5,30.23,South,184,3.5,3.5,85,0.00,OVC,SCT,0.01,WeatherDisplay:10.37,2013-08-17 20:31:00,
2013-08-17 16:36:00,62.9,58.7,30.23,South,189,4.6,4.6,86,0.01,RA,SCT,0.01,WeatherDisplay:10.37,2013-08-17 20:36:00,
2013-08-17 16:41:00,62.6,58.7,30.23,SW,229,3.7,3.7,87,0.01,RA,SCT,0.02,WeatherDisplay:10.37,2013-08-17 20:41:00,
2013-08-17 16:46:00,62.0,58.4,30.23,South,185,3.5,3.5,88,0.02,RA,SCT,0.02,WeatherDisplay:10.37,2013-08-17 20:46:00,
2013-08-17 16:51:00,62.2,59.0,30.23,South,189,0.0,0.0,89,0.03,RA,SCT,0.03,WeatherDisplay:10.37,2013-08-17 20:51:00,
2013-08-17 16:56:00,62.2,59.0,30.23,South,189,0.0,0.0,89,0.03,RA,SCT,0.03,WeatherDisplay:10.37,2013-08-17 20:56:00,
2013-08-17 17:01:00,62.2,59.0,30.23,South,189,0.0,0.0,89,0.04,RA,SCT,0.04,WeatherDisplay:10.37,2013-08-17 21:01:00,
2013-08-17 17:06:00,62.2,59.3,30.23,South,189,0.0,0.0,90,0.05,RA,SCT,0.05,WeatherDisplay:10.37,2013-08-17 21:06:00,
2013-08-17 17:11:00,62.4,59.5,30.23,South,189,0.0,0.0,90,0.05,RA,SCT,0.05,WeatherDisplay:10.37,2013-08-17 21:11:00,
2013-08-17 17:16:00,62.2,59.3,30.23,South,182,1.1,1.1,90,0.06,RA,SCT,0.06,WeatherDisplay:10.37,2013-08-17 21:16:00,
2013-08-17 17:21:00,62.2,59.3,30.23,South,182,0.0,0.0,90,0.06,RA,SCT,0.06,WeatherDisplay:10.37,2013-08-17 21:21:00,
2013-08-17 17:26:00,62.3,59.7,30.23,South,182,0.0,0.0,91,0.06,OVC,SCT,0.06,WeatherDisplay:10.37,2013-08-17 21:26:00,
2013-08-17 17:32:00,62.4,59.8,30.23,South,182,0.0,0.0,91,0.06,OVC,SCT,0.06,WeatherDisplay:10.37,2013-08-17 21:32:00,
2013-08-17 17:37:00,62.7,60.1,30.23,South,182,0.0,0.0,91,0.06,RA,SCT,0.07,WeatherDisplay:10.37,2013-08-17 21:37:00,
2013-08-17 17:42:00,62.7,60.1,30.23,South,182,0.0,0.0,91,0.06,RA,SCT,0.07,WeatherDisplay:10.37,2013-08-17 21:42:00,
2013-08-17 17:47:00,62.6,60.0,30.22,South,182,0.0,0.0,91,0.05,OVC,SCT,0.07,WeatherDisplay:10.37,2013-08-17 21:47:00,
2013-08-17 17:52:00,62.6,60.3,30.22,South,182,0.0,0.0,92,0.04,OVC,SCT,0.07,WeatherDisplay:10.37,2013-08-17 21:52:00,
2013-08-17 17:57:00,62.5,60.2,30.22,South,182,0.0,0.0,92,0.04,OVC,SCT,0.07,WeatherDisplay:10.37,2013-08-17 21:57:00,
2013-08-17 18:02:00,62.5,60.2,30.23,South,182,0.0,0.0,92,0.03,OVC,SCT,0.07,WeatherDisplay:10.37,2013-08-17 22:02:00,
2013-08-17 18:07:00,62.7,60.1,30.23,South,182,0.0,0.0,91,0.02,OVC,SCT,0.07,WeatherDisplay:10.37,2013-08-17 22:07:00,
2013-08-17 18:12:00,62.6,60.3,30.23,South,182,0.0,0.0,92,0.02,OVC,SCT,0.08,WeatherDisplay:10.37,2013-08-17 22:12:00,
2013-08-17 18:17:00,62.5,60.2,30.22,South,182,0.0,0.0,92,0.02,RA,SCT,0.08,WeatherDisplay:10.37,2013-08-17 22:17:00,
2013-08-17 18:22:00,62.6,60.3,30.23,South,182,0.0,0.0,92,0.03,RA,SCT,0.09,WeatherDisplay:10.37,2013-08-17 22:22:00,
2013-08-17 18:27:00,62.5,60.2,30.23,South,182,0.0,0.0,92,0.03,RA,SCT,0.09,WeatherDisplay:10.37,2013-08-17 22:27:00,
2013-08-17 18:32:00,62.6,60.3,30.23,South,182,0.0,0.0,92,0.03,OVC,SCT,0.09,WeatherDisplay:10.37,2013-08-17 22:32:00,
2013-08-17 18:37:00,62.6,60.3,30.22,South,182,0.0,0.0,92,0.02,OVC,SCT,0.09,WeatherDisplay:10.37,2013-08-17 22:37:00,
2013-08-17 18:42:00,62.5,60.2,30.22,South,182,0.0,0.0,92,0.03,RA,SCT,0.10,WeatherDisplay:10.37,2013-08-17 22:42:00,
2013-08-17 18:47:00,62.7,60.4,30.22,South,182,0.0,0.0,92,0.03,RA,SCT,0.10,WeatherDisplay:10.37,2013-08-17 22:47:00,
2013-08-17 18:52:00,62.4,60.1,30.22,South,182,0.0,0.0,92,0.03,OVC,SCT,0.10,WeatherDisplay:10.37,2013-08-17 22:52:00,
2013-08-17 18:57:00,62.7,60.4,30.22,South,182,0.0,0.0,92,0.03,OVC,SCT,0.10,WeatherDisplay:10.37,2013-08-17 22:57:00,
2013-08-17 19:02:00,62.7,60.4,30.22,South,182,0.0,0.0,92,0.04,-RA,SCT,0.11,WeatherDisplay:10.37,2013-08-17 23:02:00,
2013-08-17 19:07:00,62.5,60.2,30.22,South,182,0.0,0.0,92,0.04,-RA,SCT,0.11,WeatherDisplay:10.37,2013-08-17 23:07:00,
2013-08-17 19:12:00,62.4,60.4,30.22,South,182,0.0,0.0,93,0.03,-RA,SCT,0.11,WeatherDisplay:10.37,2013-08-17 23:12:00,
2013-08-17 19:17:00,62.4,60.4,30.22,South,182,0.0,0.0,93,0.03,-RA,SCT,0.11,WeatherDisplay:10.37,2013-08-17 23:17:00,
2013-08-17 19:22:00,62.5,60.5,30.22,South,182,0.0,0.0,93,0.02,-RA,SCT,0.11,WeatherDisplay:10.37,2013-08-17 23:22:00,
2013-08-17 19:27:00,62.4,60.4,30.22,South,182,0.0,0.0,93,0.02,-RA,SCT,0.11,WeatherDisplay:10.37,2013-08-17 23:27:00,
2013-08-17 19:32:00,62.4,60.4,30.22,South,182,0.0,0.0,93,0.03,-RA,SCT,0.12,WeatherDisplay:10.37,2013-08-17 23:32:00,
2013-08-17 19:37:00,62.4,60.4,30.22,South,182,0.0,0.0,93,0.03,-RA,SCT,0.12,WeatherDisplay:10.37,2013-08-17 23:37:00,
2013-08-17 19:42:00,62.5,60.5,30.22,South,182,0.0,0.0,93,0.02,-RA,SCT,0.12,WeatherDisplay:10.37,2013-08-17 23:42:00,
2013-08-17 19:47:00,62.5,60.5,30.22,South,182,0.0,0.0,93,0.02,-RA,SCT,0.12,WeatherDisplay:10.37,2013-08-17 23:47:00,
2013-08-17 19:52:00,62.6,60.6,30.22,South,182,0.0,0.0,93,0.03,-RA,SCT,0.13,WeatherDisplay:10.37,2013-08-17 23:52:00,
2013-08-17 19:57:00,62.3,60.3,30.22,South,182,0.0,0.0,93,0.03,-RA,SCT,0.13,WeatherDisplay:10.37,2013-08-17 23:57:00,
2013-08-17 20:02:00,62.2,60.2,30.22,South,182,0.0,0.0,93,0.02,-RA,SCT,0.13,WeatherDisplay:10.37,2013-08-18 00:02:00,
2013-08-17 20:07:00,62.1,60.1,30.22,South,182,0.0,0.0,93,0.02,-RA,SCT,0.13,WeatherDisplay:10.37,2013-08-18 00:07:00,
2013-08-17 20:12:00,62.4,60.4,30.22,South,182,0.0,0.0,93,0.03,-RA,SCT,0.14,WeatherDisplay:10.37,2013-08-18 00:12:00,
2013-08-17 20:17:00,62.3,60.3,30.22,South,182,0.0,0.0,93,0.03,-RA,SCT,0.14,WeatherDisplay:10.37,2013-08-18 00:17:00,
2013-08-17 20:22:00,62.4,60.4,30.22,South,182,0.0,0.0,93,0.03,-RA,SCT,0.14,WeatherDisplay:10.37,2013-08-18 00:22:00,
2013-08-17 20:27:00,62.2,60.2,30.22,South,182,0.0,0.0,93,0.03,-RA,SCT,0.14,WeatherDisplay:10.37,2013-08-18 00:27:00,
2013-08-17 20:32:00,62.2,60.5,30.22,South,182,0.0,0.0,94,0.03,-RA,SCT,0.15,WeatherDisplay:10.37,2013-08-18 00:32:00,
2013-08-17 20:37:00,62.4,60.7,30.22,South,182,0.0,0.0,94,0.03,-RA,SCT,0.15,WeatherDisplay:10.37,2013-08-18 00:37:00,
2013-08-17 20:42:00,62.4,60.7,30.22,South,182,0.0,0.0,94,0.03,-RA,SCT,0.15,WeatherDisplay:10.37,2013-08-18 00:42:00,
2013-08-17 20:47:00,62.2,60.5,30.22,South,182,0.0,0.0,94,0.03,-RA,SCT,0.15,WeatherDisplay:10.37,2013-08-18 00:47:00,
2013-08-17 20:52:00,62.2,60.5,30.22,South,182,0.0,0.0,94,0.03,-RA,SCT,0.16,WeatherDisplay:10.37,2013-08-18 00:52:00,
2013-08-17 20:57:00,62.0,60.3,30.22,South,182,0.0,0.0,94,0.03,-RA,SCT,0.16,WeatherDisplay:10.37,2013-08-18 00:57:00,
2013-08-17 21:02:00,62.4,60.7,30.22,South,182,0.0,0.0,94,0.03,-RA,SCT,0.16,WeatherDisplay:10.37,2013-08-18 01:02:00,
2013-08-17 21:07:00,62.2,60.5,30.22,South,182,0.0,0.0,94,0.03,-RA,SCT,0.16,WeatherDisplay:10.37,2013-08-18 01:07:00,
2013-08-17 21:12:00,62.1,60.4,30.22,South,182,0.0,0.0,94,0.02,-RA,SCT,0.16,WeatherDisplay:10.37,2013-08-18 01:12:00,
2013-08-17 21:17:00,62.0,60.3,30.22,South,182,0.0,0.0,94,0.02,-RA,SCT,0.16,WeatherDisplay:10.37,2013-08-18 01:17:00,
2013-08-17 21:22:00,62.2,60.5,30.23,South,182,0.0,0.0,94,0.02,-RA,SCT,0.16,WeatherDisplay:10.37,2013-08-18 01:22:00,
2013-08-17 21:27:00,62.3,60.6,30.23,South,182,0.0,0.0,94,0.02,-RA,SCT,0.16,WeatherDisplay:10.37,2013-08-18 01:27:00,
2013-08-17 21:32:00,62.3,60.6,30.23,South,182,0.0,0.0,94,0.01,-RA,SCT,0.16,WeatherDisplay:10.37,2013-08-18 01:32:00,
2013-08-17 21:37:00,62.1,60.4,30.23,South,182,0.0,0.0,94,0.02,-RA,SCT,0.17,WeatherDisplay:10.37,2013-08-18 01:37:00,
2013-08-17 21:42:00,62.0,60.3,30.23,South,182,0.0,0.0,94,0.02,-RA,SCT,0.17,WeatherDisplay:10.37,2013-08-18 01:42:00,
2013-08-17 21:47:00,62.1,60.4,30.23,South,182,0.0,0.0,94,0.02,-RA,SCT,0.17,WeatherDisplay:10.37,2013-08-18 01:47:00,
2013-08-17 21:52:00,62.1,60.4,30.23,South,182,0.0,0.0,94,0.01,-RA,SCT,0.17,WeatherDisplay:10.37,2013-08-18 01:52:00,
2013-08-17 21:57:00,62.1,60.7,30.24,South,182,0.0,0.0,95,0.01,-RA,SCT,0.17,WeatherDisplay:10.37,2013-08-18 01:57:00,
2013-08-17 22:02:00,62.1,60.7,30.24,South,182,0.0,0.0,95,0.01,OVC,SCT,0.17,WeatherDisplay:10.37,2013-08-18 02:02:00,
2013-08-17 22:07:00,62.0,60.6,30.24,South,182,0.0,0.0,95,0.02,RA,SCT,0.18,WeatherDisplay:10.37,2013-08-18 02:07:00,
2013-08-17 22:12:00,62.2,60.8,30.23,South,182,0.0,0.0,95,0.03,RA,SCT,0.19,WeatherDisplay:10.37,2013-08-18 02:12:00,
2013-08-17 22:17:00,62.2,60.8,30.24,South,182,0.0,0.0,95,0.04,RA,SCT,0.20,WeatherDisplay:10.37,2013-08-18 02:17:00,
2013-08-17 22:22:00,62.2,60.8,30.24,South,182,0.0,0.0,95,0.05,RA,SCT,0.21,WeatherDisplay:10.37,2013-08-18 02:22:00,
2013-08-17 22:27:00,62.0,60.6,30.24,South,182,0.0,0.0,95,0.06,RA,SCT,0.22,WeatherDisplay:10.37,2013-08-18 02:27:00,
2013-08-17 22:32:00,62.0,60.6,30.24,South,182,0.0,0.0,95,0.07,RA,SCT,0.23,WeatherDisplay:10.37,2013-08-18 02:32:00,
2013-08-17 22:37:00,61.9,60.5,30.23,South,182,0.0,0.0,95,0.08,RA,SCT,0.25,WeatherDisplay:10.37,2013-08-18 02:37:00,
2013-08-17 22:42:00,62.2,60.8,30.24,South,182,0.0,0.0,95,0.09,RA,SCT,0.26,WeatherDisplay:10.37,2013-08-18 02:42:00,
2013-08-17 22:47:00,62.3,60.9,30.23,South,182,0.0,0.0,95,0.10,RA,SCT,0.27,WeatherDisplay:10.37,2013-08-18 02:47:00,
2013-08-17 22:52:00,62.1,60.7,30.23,South,182,0.0,0.0,95,0.11,RA,SCT,0.28,WeatherDisplay:10.37,2013-08-18 02:52:00,
2013-08-17 22:57:00,62.1,60.7,30.23,South,182,0.0,0.0,95,0.12,RA,SCT,0.29,WeatherDisplay:10.37,2013-08-18 02:57:00,
2013-08-17 23:02:00,62.1,60.7,30.23,South,182,0.0,0.0,95,0.13,RA,SCT,0.30,WeatherDisplay:10.37,2013-08-18 03:02:00,
2013-08-17 23:07:00,62.2,60.8,30.23,South,182,0.0,0.0,95,0.14,RA,SCT,0.32,WeatherDisplay:10.37,2013-08-18 03:07:00,
2013-08-17 23:12:00,62.0,60.6,30.23,South,182,0.0,0.0,95,0.14,RA,SCT,0.33,WeatherDisplay:10.37,2013-08-18 03:12:00,
2013-08-17 23:17:00,61.8,60.4,30.23,South,182,0.0,0.0,95,0.13,RA,SCT,0.34,WeatherDisplay:10.37,2013-08-18 03:17:00,
2013-08-17 23:22:00,62.1,60.7,30.23,South,182,0.0,0.0,95,0.13,RA,SCT,0.34,WeatherDisplay:10.37,2013-08-18 03:22:00,
2013-08-17 23:27:00,61.8,60.4,30.23,South,182,0.0,0.0,95,0.13,RA,SCT,0.35,WeatherDisplay:10.37,2013-08-18 03:27:00,
2013-08-17 23:32:00,62.1,60.7,30.23,South,182,0.0,0.0,95,0.12,RA,SCT,0.35,WeatherDisplay:10.37,2013-08-18 03:32:00,
2013-08-17 23:37:00,62.0,60.6,30.23,South,182,0.0,0.0,95,0.11,RA,SCT,0.36,WeatherDisplay:10.37,2013-08-18 03:37:00,
2013-08-17 23:42:00,62.0,60.6,30.23,South,182,0.0,0.0,95,0.10,RA,SCT,0.36,WeatherDisplay:10.37,2013-08-18 03:42:00,
2013-08-17 23:47:00,61.8,60.4,30.23,South,182,0.0,0.0,95,0.10,RA,SCT,0.37,WeatherDisplay:10.37,2013-08-18 03:47:00,
2013-08-17 23:52:00,62.1,60.7,30.23,NE,45,0.0,0.0,95,0.09,RA,SCT,0.38,WeatherDisplay:10.37,2013-08-18 03:52:00,
2013-08-17 23:57:00,62.0,60.6,30.23,NE,45,0.0,0.0,95,0.09,RA,SCT,0.38,WeatherDisplay:10.37,2013-08-18 03:57:00,